createdAt,value
2018-07-08T00:00:58.137Z,22.87
2018-07-08T00:01:58.430Z,22.87
2018-07-08T00:02:58.450Z,22.78
2018-07-08T00:03:58.499Z,22.85
2018-07-08T00:04:58.501Z,22.78
2018-07-08T00:05:58.531Z,22.75
2018-07-08T00:06:58.279Z,22.81
2018-07-08T00:07:58.574Z,22.7
2018-07-08T00:08:58.598Z,22.69
2018-07-08T00:09:58.626Z,22.68
2018-07-08T00:10:58.643Z,22.68
2018-07-08T00:11:58.671Z,22.69
2018-07-08T00:12:58.695Z,22.68
2018-07-08T00:13:58.453Z,22.69
2018-07-08T00:14:58.740Z,22.57
2018-07-08T00:15:58.766Z,22.6
2018-07-08T00:16:58.529Z,22.63
2018-07-08T00:17:58.561Z,22.55
2018-07-08T00:18:58.839Z,22.62
2018-07-08T00:19:58.866Z,22.55
2018-07-08T00:20:58.623Z,22.57
2018-07-08T00:21:58.919Z,22.59
2018-07-08T00:22:58.937Z,22.47
2018-07-08T00:23:58.963Z,22.51
2018-07-08T00:24:58.719Z,22.53
2018-07-08T00:25:59.028Z,22.47
2018-07-08T00:26:59.038Z,22.5
2018-07-08T00:27:58.799Z,22.47
2018-07-08T00:28:58.549Z,22.57
2018-07-08T00:29:59.116Z,22.5
2018-07-08T00:30:59.130Z,22.48
2018-07-08T00:31:59.161Z,22.5
2018-07-08T00:32:59.096Z,22.5
2018-07-08T00:33:59.209Z,22.51
2018-07-08T00:34:59.229Z,22.41
2018-07-08T00:35:58.984Z,22.36
2018-07-08T00:36:59.285Z,22.35
2018-07-08T00:37:59.037Z,22.36
2018-07-08T00:38:59.322Z,22.35
2018-07-08T00:39:59.680Z,22.33
2018-07-08T00:40:59.377Z,22.35
2018-07-08T00:41:59.134Z,22.32
2018-07-08T00:42:59.450Z,22.26
2018-07-08T00:43:58.911Z,22.26
2018-07-08T00:44:58.938Z,22.26
2018-07-08T00:45:59.230Z,22.23
2018-07-08T00:46:59.254Z,22.26
2018-07-08T00:47:59.593Z,22.28
2018-07-08T00:48:59.569Z,22.18
2018-07-08T00:49:59.603Z,22.26
2018-07-08T00:50:59.345Z,22.15
2018-07-08T00:51:59.638Z,22.14
2018-07-08T00:52:59.658Z,22.11
2018-07-08T00:53:59.692Z,22.1
2018-07-08T00:54:59.171Z,22.18
2018-07-08T00:55:59.238Z,22.04
2018-07-08T00:56:59.758Z,22
2018-07-08T00:57:59.780Z,21.99
2018-07-08T00:58:59.537Z,22.04
2018-07-08T00:59:59.560Z,22
2018-07-08T01:00:59.856Z,22.04
2018-07-08T01:01:59.882Z,22.04
2018-07-08T01:02:59.635Z,21.96
2018-07-08T01:03:59.936Z,21.98
2018-07-08T01:04:59.945Z,21.99
2018-07-08T01:05:59.702Z,21.89
2018-07-08T01:06:59.995Z,21.89
2018-07-08T01:07:59.805Z,21.95
2018-07-08T01:09:00.046Z,21.91
2018-07-08T01:10:00.072Z,21.91
2018-07-08T01:11:00.091Z,21.85
2018-07-08T01:12:00.113Z,21.8
2018-07-08T01:12:59.880Z,21.83
2018-07-08T01:14:00.168Z,21.88
2018-07-08T01:14:59.650Z,21.82
2018-07-08T01:15:59.942Z,21.77
2018-07-08T01:16:59.964Z,21.8
2018-07-08T01:17:59.726Z,21.8
2018-07-08T01:19:00.293Z,21.79
2018-07-08T01:20:00.301Z,21.82
2018-07-08T01:21:00.081Z,21.7
2018-07-08T01:22:00.082Z,21.72
2018-07-08T01:23:00.383Z,21.69
2018-07-08T01:24:00.408Z,21.73
2018-07-08T01:25:00.420Z,21.73
2018-07-08T01:26:00.443Z,21.73
2018-07-08T01:27:00.205Z,21.66
2018-07-08T01:28:00.495Z,21.62
2018-07-08T01:29:00.513Z,21.64
2018-07-08T01:30:00.543Z,21.58
2018-07-08T01:31:00.566Z,21.6
2018-07-08T01:32:00.325Z,21.58
2018-07-08T01:33:00.610Z,21.58
2018-07-08T01:34:00.639Z,21.52
2018-07-08T01:35:00.662Z,21.57
2018-07-08T01:36:00.464Z,21.46
2018-07-08T01:37:00.172Z,21.55
2018-07-08T01:38:00.204Z,21.5
2018-07-08T01:39:00.754Z,21.5
2018-07-08T01:40:00.771Z,21.43
2018-07-08T01:41:00.818Z,21.46
2018-07-08T01:42:00.289Z,21.42
2018-07-08T01:43:00.847Z,21.46
2018-07-08T01:44:00.606Z,21.4
2018-07-08T01:45:00.893Z,21.42
2018-07-08T01:46:00.918Z,21.37
2018-07-08T01:47:00.937Z,21.42
2018-07-08T01:48:00.973Z,21.36
2018-07-08T01:49:00.982Z,21.37
2018-07-08T01:50:00.763Z,21.4
2018-07-08T01:51:01.035Z,21.4
2018-07-08T01:52:01.062Z,21.25
2018-07-08T01:53:01.075Z,21.39
2018-07-08T01:54:01.111Z,21.3
2018-07-08T01:55:01.182Z,21.29
2018-07-08T01:56:01.153Z,21.32
2018-07-08T01:57:01.172Z,21.32
2018-07-08T01:58:00.934Z,21.3
2018-07-08T01:59:00.956Z,21.24
2018-07-08T02:00:01.237Z,21.29
2018-07-08T02:01:00.996Z,21.22
2018-07-08T02:02:01.022Z,21.24
2018-07-08T02:03:01.306Z,21.18
2018-07-08T02:04:01.074Z,21.3
2018-07-08T02:05:01.359Z,21.17
2018-07-08T02:06:01.121Z,21.24
2018-07-08T02:07:01.189Z,21.18
2018-07-08T02:08:01.421Z,21.17
2018-07-08T02:09:01.186Z,21.11
2018-07-08T02:10:01.207Z,21.12
2018-07-08T02:11:01.539Z,21.09
2018-07-08T02:12:01.516Z,21.11
2018-07-08T02:13:01.545Z,21.03
2018-07-08T02:14:01.317Z,21.03
2018-07-08T02:15:01.593Z,21
2018-07-08T02:16:01.613Z,21.05
2018-07-08T02:17:01.634Z,21.02
2018-07-08T02:18:01.658Z,21
2018-07-08T02:19:01.415Z,20.97
2018-07-08T02:20:01.445Z,21.02
2018-07-08T02:21:01.195Z,20.96
2018-07-08T02:22:01.756Z,21.03
2018-07-08T02:23:01.779Z,20.93
2018-07-08T02:24:01.547Z,20.95
2018-07-08T02:25:01.558Z,20.97
2018-07-08T02:26:01.842Z,20.82
2018-07-08T02:27:01.599Z,20.9
2018-07-08T02:28:01.894Z,20.85
2018-07-08T02:29:01.913Z,20.92
2018-07-08T02:30:01.668Z,20.87
2018-07-08T02:31:01.963Z,20.85
2018-07-08T02:32:01.983Z,20.85
2018-07-08T02:33:02.057Z,20.77
2018-07-08T02:34:01.774Z,20.8
2018-07-08T02:35:01.783Z,20.81
2018-07-08T02:36:02.089Z,20.8
2018-07-08T02:37:01.564Z,20.74
2018-07-08T02:38:02.116Z,20.75
2018-07-08T02:39:01.617Z,20.74
2018-07-08T02:40:02.170Z,20.7
2018-07-08T02:41:02.199Z,20.69
2018-07-08T02:42:02.221Z,20.72
2018-07-08T02:43:02.232Z,20.74
2018-07-08T02:44:02.268Z,20.6
2018-07-08T02:45:02.019Z,20.63
2018-07-08T02:46:02.305Z,20.59
2018-07-08T02:47:02.057Z,20.67
2018-07-08T02:48:02.350Z,20.62
2018-07-08T02:49:02.106Z,20.62
2018-07-08T02:50:02.409Z,20.58
2018-07-08T02:51:02.425Z,20.59
2018-07-08T02:52:02.450Z,20.55
2018-07-08T02:53:02.472Z,20.52
2018-07-08T02:54:02.221Z,20.58
2018-07-08T02:55:02.734Z,20.52
2018-07-08T02:56:02.539Z,20.44
2018-07-08T02:57:02.557Z,20.44
2018-07-08T02:58:02.577Z,20.41
2018-07-08T02:59:02.336Z,20.51
2018-07-08T03:00:02.361Z,20.41
2018-07-08T03:01:02.649Z,20.48
2018-07-08T03:02:02.410Z,20.51
2018-07-08T03:03:02.440Z,20.48
2018-07-08T03:04:02.735Z,20.44
2018-07-08T03:05:02.740Z,20.39
2018-07-08T03:06:02.495Z,20.44
2018-07-08T03:07:02.530Z,20.5
2018-07-08T03:08:02.545Z,20.48
2018-07-08T03:09:02.838Z,20.47
2018-07-08T03:10:02.315Z,20.31
2018-07-08T03:11:02.884Z,20.32
2018-07-08T03:12:02.632Z,20.37
2018-07-08T03:13:02.925Z,20.31
2018-07-08T03:14:02.940Z,20.41
2018-07-08T03:15:02.430Z,20.39
2018-07-08T03:16:03.006Z,20.39
2018-07-08T03:17:02.738Z,20.32
2018-07-08T03:18:02.778Z,20.29
2018-07-08T03:19:02.787Z,20.31
2018-07-08T03:20:03.076Z,20.26
2018-07-08T03:21:02.827Z,20.26
2018-07-08T03:22:02.865Z,20.28
2018-07-08T03:23:03.143Z,20.25
2018-07-08T03:24:02.937Z,20.31
2018-07-08T03:25:03.192Z,20.26
2018-07-08T03:26:03.215Z,20.16
2018-07-08T03:27:02.966Z,20.29
2018-07-08T03:28:03.255Z,20.28
2018-07-08T03:29:03.277Z,20.14
2018-07-08T03:30:03.322Z,20.16
2018-07-08T03:31:03.329Z,20.19
2018-07-08T03:32:03.366Z,20.13
2018-07-08T03:33:03.373Z,20.11
2018-07-08T03:34:03.397Z,20.18
2018-07-08T03:35:03.411Z,20.14
2018-07-08T03:36:03.187Z,20.19
2018-07-08T03:37:03.193Z,20.14
2018-07-08T03:38:03.506Z,20.04
2018-07-08T03:39:03.509Z,20.07
2018-07-08T03:40:03.569Z,20.13
2018-07-08T03:41:03.279Z,20.06
2018-07-08T03:42:03.298Z,20.03
2018-07-08T03:43:03.323Z,20.06
2018-07-08T03:44:03.624Z,20.1
2018-07-08T03:45:03.642Z,20.04
2018-07-08T03:46:03.422Z,20.02
2018-07-08T03:47:03.147Z,20.02
2018-07-08T03:48:03.703Z,20.04
2018-07-08T03:49:03.459Z,20.03
2018-07-08T03:50:03.755Z,20
2018-07-08T03:51:03.776Z,20
2018-07-08T03:52:03.535Z,19.96
2018-07-08T03:53:03.552Z,19.96
2018-07-08T03:54:03.846Z,20.04
2018-07-08T03:55:03.858Z,19.95
2018-07-08T03:56:03.617Z,19.91
2018-07-08T03:57:03.644Z,19.95
2018-07-08T03:58:03.659Z,19.92
2018-07-08T03:59:03.679Z,19.91
2018-07-08T04:00:03.716Z,19.96
2018-07-08T04:01:03.727Z,20
2018-07-08T04:02:04.019Z,19.86
2018-07-08T04:03:03.775Z,19.89
2018-07-08T04:04:03.792Z,19.94
2018-07-08T04:05:03.817Z,19.95
2018-07-08T04:06:03.836Z,19.88
2018-07-08T04:07:04.133Z,19.94
2018-07-08T04:08:04.160Z,19.88
2018-07-08T04:09:03.906Z,19.91
2018-07-08T04:10:04.206Z,19.84
2018-07-08T04:11:03.955Z,19.84
2018-07-08T04:12:03.979Z,19.91
2018-07-08T04:13:04.270Z,19.86
2018-07-08T04:14:04.286Z,19.88
2018-07-08T04:15:04.056Z,19.81
2018-07-08T04:16:03.795Z,19.82
2018-07-08T04:17:03.818Z,19.82
2018-07-08T04:18:04.121Z,19.84
2018-07-08T04:19:04.129Z,19.86
2018-07-08T04:20:04.165Z,19.71
2018-07-08T04:21:04.440Z,19.73
2018-07-08T04:22:04.192Z,19.85
2018-07-08T04:23:03.951Z,19.79
2018-07-08T04:24:04.243Z,19.71
2018-07-08T04:25:03.994Z,19.69
2018-07-08T04:26:04.279Z,19.73
2018-07-08T04:27:04.037Z,19.79
2018-07-08T04:28:04.614Z,19.69
2018-07-08T04:29:04.083Z,19.81
2018-07-08T04:30:04.376Z,19.77
2018-07-08T04:31:04.669Z,19.82
2018-07-08T04:32:04.688Z,19.77
2018-07-08T04:33:04.707Z,19.77
2018-07-08T04:34:04.729Z,19.79
2018-07-08T04:35:04.497Z,19.69
2018-07-08T04:36:04.774Z,19.69
2018-07-08T04:37:04.794Z,19.74
2018-07-08T04:38:04.823Z,19.76
2018-07-08T04:39:04.844Z,19.73
2018-07-08T04:40:04.884Z,19.79
2018-07-08T04:41:04.885Z,19.73
2018-07-08T04:42:04.941Z,19.73
2018-07-08T04:43:04.663Z,19.73
2018-07-08T04:44:04.950Z,19.73
2018-07-08T04:45:04.970Z,19.73
2018-07-08T04:46:04.996Z,19.71
2018-07-08T04:47:05.017Z,19.67
2018-07-08T04:48:04.767Z,19.73
2018-07-08T04:49:04.525Z,19.74
2018-07-08T04:50:05.084Z,19.77
2018-07-08T04:51:05.104Z,19.73
2018-07-08T04:52:05.128Z,19.73
2018-07-08T04:53:04.904Z,19.76
2018-07-08T04:54:04.904Z,19.7
2018-07-08T04:55:05.190Z,19.82
2018-07-08T04:56:05.222Z,19.69
2018-07-08T04:57:05.235Z,19.82
2018-07-08T04:58:04.734Z,19.79
2018-07-08T04:59:05.087Z,19.79
2018-07-08T05:00:05.034Z,19.85
2018-07-08T05:01:05.902Z,19.71
2018-07-08T05:02:05.081Z,19.82
2018-07-08T05:03:05.375Z,19.71
2018-07-08T05:04:04.882Z,19.77
2018-07-08T05:05:04.877Z,19.77
2018-07-08T05:06:05.450Z,19.84
2018-07-08T05:07:05.455Z,19.85
2018-07-08T05:08:05.476Z,19.77
2018-07-08T05:09:05.500Z,19.84
2018-07-08T05:10:05.527Z,19.81
2018-07-08T05:11:05.273Z,19.82
2018-07-08T05:12:05.053Z,19.79
2018-07-08T05:13:05.600Z,19.92
2018-07-08T05:14:05.613Z,19.84
2018-07-08T05:15:05.371Z,19.81
2018-07-08T05:16:05.156Z,19.81
2018-07-08T05:17:05.679Z,19.88
2018-07-08T05:18:05.710Z,19.84
2018-07-08T05:19:05.722Z,19.79
2018-07-08T05:20:05.487Z,19.84
2018-07-08T05:21:05.771Z,19.89
2018-07-08T05:22:05.782Z,19.96
2018-07-08T05:23:05.271Z,19.86
2018-07-08T05:24:05.575Z,19.88
2018-07-08T05:25:05.852Z,19.92
2018-07-08T05:26:05.889Z,19.96
2018-07-08T05:27:05.897Z,20
2018-07-08T05:28:05.925Z,19.94
2018-07-08T05:29:05.962Z,19.96
2018-07-08T05:30:05.702Z,19.96
2018-07-08T05:31:05.995Z,19.96
2018-07-08T05:32:05.755Z,20.06
2018-07-08T05:33:06.053Z,20.1
2018-07-08T05:34:05.841Z,20.03
2018-07-08T05:35:06.072Z,20.04
2018-07-08T05:36:05.826Z,19.96
2018-07-08T05:37:05.847Z,20.02
2018-07-08T05:38:05.915Z,20.03
2018-07-08T05:39:05.895Z,20.1
2018-07-08T05:40:05.661Z,20.04
2018-07-08T05:41:06.202Z,20.04
2018-07-08T05:42:05.691Z,20.07
2018-07-08T05:43:05.716Z,20.07
2018-07-08T05:44:06.002Z,20.07
2018-07-08T05:45:06.031Z,20.13
2018-07-08T05:46:06.065Z,20.04
2018-07-08T05:47:06.358Z,20.13
2018-07-08T05:48:06.094Z,20.14
2018-07-08T05:49:06.392Z,20.18
2018-07-08T05:50:06.252Z,20.04
2018-07-08T05:51:06.161Z,20.14
2018-07-08T05:52:06.454Z,20.19
2018-07-08T05:53:06.200Z,20.13
2018-07-08T05:54:06.225Z,20.13
2018-07-08T05:55:06.511Z,20.1
2018-07-08T05:56:06.282Z,20.16
2018-07-08T05:57:06.291Z,20.14
2018-07-08T05:58:06.339Z,20.16
2018-07-08T05:59:06.631Z,20.21
2018-07-08T06:00:06.628Z,20.24
2018-07-08T06:01:06.382Z,20.28
2018-07-08T06:02:06.410Z,20.29
2018-07-08T06:03:06.422Z,20.32
2018-07-08T06:04:06.712Z,20.25
2018-07-08T06:05:06.741Z,20.39
2018-07-08T06:06:06.494Z,20.37
2018-07-08T06:07:06.510Z,20.37
2018-07-08T06:08:06.554Z,20.32
2018-07-08T06:09:06.833Z,20.47
2018-07-08T06:10:06.584Z,20.48
2018-07-08T06:11:06.606Z,20.51
2018-07-08T06:12:06.630Z,20.44
2018-07-08T06:13:06.655Z,20.52
2018-07-08T06:14:06.416Z,20.56
2018-07-08T06:15:06.686Z,20.51
2018-07-08T06:16:06.444Z,20.58
2018-07-08T06:17:07.008Z,20.6
2018-07-08T06:18:06.811Z,20.62
2018-07-08T06:19:06.805Z,20.63
2018-07-08T06:20:07.074Z,20.6
2018-07-08T06:21:06.825Z,20.66
2018-07-08T06:22:06.866Z,20.78
2018-07-08T06:23:07.146Z,20.78
2018-07-08T06:24:06.893Z,20.8
2018-07-08T06:25:06.908Z,20.78
2018-07-08T06:26:07.064Z,20.82
2018-07-08T06:27:07.227Z,20.84
2018-07-08T06:28:06.986Z,20.82
2018-07-08T06:29:07.003Z,20.96
2018-07-08T06:30:07.023Z,20.9
2018-07-08T06:31:07.310Z,20.88
2018-07-08T06:32:07.066Z,20.99
2018-07-08T06:33:07.093Z,21.05
2018-07-08T06:34:07.113Z,21
2018-07-08T06:35:07.136Z,21.03
2018-07-08T06:36:07.440Z,21.05
2018-07-08T06:37:07.469Z,21.14
2018-07-08T06:38:07.475Z,21.12
2018-07-08T06:39:07.568Z,21.12
2018-07-08T06:40:07.247Z,21.2
2018-07-08T06:41:07.531Z,21.22
2018-07-08T06:42:07.557Z,21.22
2018-07-08T06:43:07.577Z,21.25
2018-07-08T06:44:07.493Z,21.33
2018-07-08T06:45:07.357Z,21.33
2018-07-08T06:46:07.651Z,21.33
2018-07-08T06:47:07.405Z,21.32
2018-07-08T06:48:07.424Z,21.35
2018-07-08T06:49:07.615Z,21.36
2018-07-08T06:50:07.216Z,21.35
2018-07-08T06:51:07.801Z,21.35
2018-07-08T06:52:07.668Z,21.4
2018-07-08T06:53:07.571Z,21.36
2018-07-08T06:54:07.737Z,21.36
2018-07-08T06:55:07.583Z,21.36
2018-07-08T06:56:07.608Z,21.42
2018-07-08T06:57:07.630Z,21.4
2018-07-08T06:58:07.922Z,21.46
2018-07-08T06:59:07.408Z,21.42
2018-07-08T07:00:07.428Z,21.57
2018-07-08T07:01:07.720Z,21.5
2018-07-08T07:02:08.187Z,21.55
2018-07-08T07:03:07.761Z,21.57
2018-07-08T07:04:08.062Z,21.58
2018-07-08T07:05:07.810Z,21.57
2018-07-08T07:06:08.100Z,21.66
2018-07-08T07:07:08.119Z,21.57
2018-07-08T07:08:07.905Z,21.69
2018-07-08T07:09:07.633Z,21.64
2018-07-08T07:10:07.652Z,21.79
2018-07-08T07:11:08.231Z,21.8
2018-07-08T07:12:08.235Z,21.83
2018-07-08T07:13:08.261Z,21.85
2018-07-08T07:14:08.308Z,21.89
2018-07-08T07:15:08.304Z,21.88
2018-07-08T07:16:08.061Z,21.82
2018-07-08T07:17:08.082Z,21.88
2018-07-08T07:18:08.372Z,21.89
2018-07-08T07:19:08.391Z,21.88
2018-07-08T07:20:08.422Z,21.93
2018-07-08T07:21:08.445Z,21.91
2018-07-08T07:22:07.930Z,21.92
2018-07-08T07:23:08.796Z,21.95
2018-07-08T07:24:08.509Z,21.98
2018-07-08T07:25:08.543Z,22
2018-07-08T07:26:08.560Z,21.96
2018-07-08T07:27:08.581Z,21.96
2018-07-08T07:28:08.603Z,22
2018-07-08T07:29:08.628Z,22.14
2018-07-08T07:30:08.666Z,22.15
2018-07-08T07:31:08.408Z,22.26
2018-07-08T07:32:08.425Z,22.23
2018-07-08T07:33:08.448Z,22.29
2018-07-08T07:34:08.738Z,22.28
2018-07-08T07:35:08.766Z,22.43
2018-07-08T07:36:08.517Z,22.36
2018-07-08T07:37:09.091Z,22.32
2018-07-08T07:38:08.617Z,22.36
2018-07-08T07:39:08.863Z,22.39
2018-07-08T07:40:08.890Z,22.38
2018-07-08T07:41:08.903Z,22.47
2018-07-08T07:42:08.924Z,22.47
2018-07-08T07:43:08.954Z,22.5
2018-07-08T07:44:08.705Z,22.5
2018-07-08T07:45:09.003Z,22.53
2018-07-08T07:46:09.042Z,22.47
2018-07-08T07:47:09.042Z,22.55
2018-07-08T07:48:08.530Z,22.55
2018-07-08T07:49:08.819Z,22.45
2018-07-08T07:50:08.858Z,22.51
2018-07-08T07:51:08.908Z,22.53
2018-07-08T07:52:09.154Z,22.47
2018-07-08T07:53:09.183Z,22.44
2018-07-08T07:54:09.203Z,22.62
2018-07-08T07:55:09.224Z,22.57
2018-07-08T07:56:09.253Z,22.57
2018-07-08T07:57:09.281Z,22.65
2018-07-08T07:58:09.300Z,22.65
2018-07-08T07:59:09.128Z,22.6
2018-07-08T08:00:09.403Z,22.69
2018-07-08T08:01:09.103Z,22.72
2018-07-08T08:02:09.409Z,22.8
2018-07-08T08:03:09.152Z,22.87
2018-07-08T08:04:09.173Z,22.87
2018-07-08T08:05:09.191Z,22.88
2018-07-08T08:06:09.481Z,23.02
2018-07-08T08:07:09.503Z,23
2018-07-08T08:08:09.528Z,23.12
2018-07-08T08:09:09.285Z,23.21
2018-07-08T08:10:09.311Z,23.13
2018-07-08T08:11:09.751Z,23.25
2018-07-08T08:12:09.354Z,23.31
2018-07-08T08:13:09.431Z,23.32
2018-07-08T08:14:09.447Z,23.41
2018-07-08T08:15:09.699Z,23.44
2018-07-08T08:16:09.451Z,23.55
2018-07-08T08:17:09.747Z,23.58
2018-07-08T08:18:09.501Z,23.69
2018-07-08T08:19:09.522Z,23.74
2018-07-08T08:20:09.543Z,23.74
2018-07-08T08:21:09.760Z,23.71
2018-07-08T08:22:09.863Z,23.83
2018-07-08T08:23:09.632Z,23.87
2018-07-08T08:24:09.674Z,23.93
2018-07-08T08:25:09.664Z,23.93
2018-07-08T08:26:09.686Z,24.13
2018-07-08T08:27:09.712Z,24.02
2018-07-08T08:28:10.007Z,24.14
2018-07-08T08:29:10.024Z,24.18
2018-07-08T08:30:09.515Z,24.29
2018-07-08T08:31:10.079Z,24.39
2018-07-08T08:32:09.831Z,24.45
2018-07-08T08:33:10.125Z,24.36
2018-07-08T08:34:09.877Z,24.48
2018-07-08T08:35:10.206Z,24.57
2018-07-08T08:36:10.191Z,24.63
2018-07-08T08:37:09.953Z,24.7
2018-07-08T08:38:10.302Z,24.7
2018-07-08T08:39:10.268Z,24.81
2018-07-08T08:40:10.295Z,24.8
2018-07-08T08:41:10.338Z,24.86
2018-07-08T08:42:10.070Z,24.86
2018-07-08T08:43:09.847Z,24.98
2018-07-08T08:44:10.616Z,24.96
2018-07-08T08:45:09.876Z,24.93
2018-07-08T08:46:09.904Z,24.95
2018-07-08T08:47:10.462Z,25.07
2018-07-08T08:48:10.249Z,25.06
2018-07-08T08:49:10.279Z,25.07
2018-07-08T08:50:10.538Z,25.16
2018-07-08T08:51:10.142Z,25.13
2018-07-08T08:52:10.312Z,25.16
2018-07-08T08:53:10.343Z,25.29
2018-07-08T08:54:10.370Z,25.26
2018-07-08T08:55:10.392Z,25.33
2018-07-08T08:56:10.716Z,25.35
2018-07-08T08:57:10.706Z,25.47
2018-07-08T08:58:10.468Z,25.44
2018-07-08T08:59:10.234Z,25.58
2018-07-08T09:00:10.786Z,25.59
2018-07-08T09:01:10.878Z,25.54
2018-07-08T09:02:10.566Z,25.58
2018-07-08T09:03:10.584Z,25.72
2018-07-08T09:04:10.888Z,25.73
2018-07-08T09:05:11.138Z,25.72
2018-07-08T09:06:10.663Z,25.81
2018-07-08T09:07:11.049Z,25.85
2018-07-08T09:08:10.719Z,25.95
2018-07-08T09:09:10.999Z,25.95
2018-07-08T09:10:11.029Z,25.98
2018-07-08T09:11:11.054Z,26.07
2018-07-08T09:12:10.827Z,26.09
2018-07-08T09:13:10.837Z,26.09
2018-07-08T09:14:10.861Z,26.15
2018-07-08T09:15:10.968Z,26.07
2018-07-08T09:16:11.176Z,26.16
2018-07-08T09:17:11.308Z,26.23
2018-07-08T09:18:11.235Z,26.22
2018-07-08T09:19:11.256Z,26.19
2018-07-08T09:20:10.744Z,26.26
2018-07-08T09:21:11.035Z,26.19
2018-07-08T09:22:11.267Z,26.21
2018-07-08T09:23:11.373Z,26.1
2018-07-08T09:24:11.589Z,26.09
2018-07-08T09:25:11.410Z,26.23
2018-07-08T09:26:11.433Z,26.26
2018-07-08T09:27:11.458Z,26.25
2018-07-08T09:28:11.216Z,26.33
2018-07-08T09:29:11.260Z,26.37
2018-07-08T09:30:11.387Z,26.23
2018-07-08T09:31:11.116Z,26.37
2018-07-08T09:32:11.319Z,26.43
2018-07-08T09:33:11.771Z,26.44
2018-07-08T09:34:11.492Z,26.47
2018-07-08T09:35:11.661Z,26.43
2018-07-08T09:36:11.420Z,26.44
2018-07-08T09:37:11.820Z,26.43
2018-07-08T09:38:11.470Z,26.51
2018-07-08T09:39:11.965Z,26.48
2018-07-08T09:40:11.526Z,26.44
2018-07-08T09:41:11.548Z,26.56
2018-07-08T09:42:11.576Z,26.58
2018-07-08T09:43:11.864Z,26.55
2018-07-08T09:44:11.923Z,26.59
2018-07-08T09:45:11.919Z,26.6
2018-07-08T09:46:11.681Z,26.65
2018-07-08T09:47:11.708Z,26.8
2018-07-08T09:48:11.994Z,26.83
2018-07-08T09:49:11.488Z,26.96
2018-07-08T09:50:11.550Z,26.97
2018-07-08T09:51:12.076Z,26.99
2018-07-08T09:52:11.832Z,27.08
2018-07-08T09:53:12.134Z,27.2
2018-07-08T09:54:11.890Z,27.25
2018-07-08T09:55:11.725Z,27.29
2018-07-08T09:56:12.207Z,27.4
2018-07-08T09:57:12.237Z,27.37
2018-07-08T09:58:12.455Z,27.48
2018-07-08T09:59:12.321Z,27.54
2018-07-08T10:00:12.041Z,27.51
2018-07-08T10:01:12.070Z,27.58
2018-07-08T10:02:12.359Z,27.67
2018-07-08T10:03:12.391Z,27.74
2018-07-08T10:04:12.411Z,27.78
2018-07-08T10:05:12.440Z,27.77
2018-07-08T10:06:12.289Z,27.9
2018-07-08T10:07:12.274Z,28
2018-07-08T10:08:12.519Z,28.04
2018-07-08T10:09:12.541Z,28.05
2018-07-08T10:10:12.575Z,28.1
2018-07-08T10:11:12.648Z,28.07
2018-07-08T10:12:12.637Z,28.19
2018-07-08T10:13:12.651Z,28.23
2018-07-08T10:14:12.834Z,28.29
2018-07-08T10:15:12.708Z,28.35
2018-07-08T10:16:12.827Z,28.47
2018-07-08T10:17:12.874Z,28.42
2018-07-08T10:18:12.822Z,28.39
2018-07-08T10:19:12.559Z,28.52
2018-07-08T10:20:13.191Z,28.64
2018-07-08T10:21:12.868Z,28.67
2018-07-08T10:22:13.083Z,28.62
2018-07-08T10:23:12.652Z,28.69
2018-07-08T10:24:12.945Z,28.75
2018-07-08T10:25:12.744Z,28.86
2018-07-08T10:26:12.997Z,28.88
2018-07-08T10:27:12.882Z,28.82
2018-07-08T10:28:13.191Z,28.93
2018-07-08T10:29:13.253Z,28.86
2018-07-08T10:30:13.135Z,28.86
2018-07-08T10:31:12.862Z,28.94
2018-07-08T10:32:13.175Z,28.94
2018-07-08T10:33:12.920Z,29.01
2018-07-08T10:34:12.949Z,28.97
2018-07-08T10:35:12.982Z,29.04
2018-07-08T10:36:13.014Z,29.02
2018-07-08T10:37:13.034Z,29.1
2018-07-08T10:38:13.187Z,29.16
2018-07-08T10:39:13.355Z,29.26
2018-07-08T10:40:13.110Z,29.29
2018-07-08T10:41:13.426Z,29.38
2018-07-08T10:42:13.435Z,29.35
2018-07-08T10:43:13.465Z,29.41
2018-07-08T10:44:13.219Z,29.42
2018-07-08T10:45:13.264Z,29.51
2018-07-08T10:46:13.545Z,29.53
2018-07-08T10:47:13.303Z,29.54
2018-07-08T10:48:13.328Z,29.57
2018-07-08T10:49:13.376Z,29.66
2018-07-08T10:50:13.819Z,29.78
2018-07-08T10:51:13.682Z,29.88
2018-07-08T10:52:13.708Z,29.91
2018-07-08T10:53:13.475Z,29.93
2018-07-08T10:54:13.505Z,29.93
2018-07-08T10:55:13.536Z,29.95
2018-07-08T10:56:13.556Z,30.03
2018-07-08T10:57:13.327Z,30.03
2018-07-08T10:58:13.884Z,30.08
2018-07-08T10:59:14.004Z,30.15
2018-07-08T11:00:13.932Z,30.13
2018-07-08T11:01:13.963Z,30.08
2018-07-08T11:02:13.994Z,30.13
2018-07-08T11:03:14.021Z,30.19
2018-07-08T11:04:14.045Z,30.15
2018-07-08T11:05:14.073Z,30.24
2018-07-08T11:06:14.293Z,30.3
2018-07-08T11:07:14.134Z,30.28
2018-07-08T11:08:14.156Z,30.32
2018-07-08T11:09:14.187Z,30.48
2018-07-08T11:10:13.682Z,30.54
2018-07-08T11:11:13.980Z,30.5
2018-07-08T11:12:14.272Z,30.53
2018-07-08T11:13:14.299Z,30.62
2018-07-08T11:14:14.064Z,30.62
2018-07-08T11:15:14.131Z,30.66
2018-07-08T11:16:14.388Z,30.72
2018-07-08T11:17:13.882Z,30.8
2018-07-08T11:18:14.442Z,30.78
2018-07-08T11:19:14.469Z,30.83
2018-07-08T11:20:14.318Z,30.9
2018-07-08T11:21:14.545Z,31
2018-07-08T11:22:14.562Z,31.06
2018-07-08T11:23:14.053Z,31.22
2018-07-08T11:24:14.345Z,31.29
2018-07-08T11:25:14.648Z,31.37
2018-07-08T11:26:14.675Z,31.49
2018-07-08T11:27:14.699Z,31.61
2018-07-08T11:28:14.881Z,31.73
2018-07-08T11:29:14.494Z,31.77
2018-07-08T11:30:14.256Z,31.93
2018-07-08T11:31:14.550Z,31.94
2018-07-08T11:32:14.859Z,32.01
2018-07-08T11:33:14.872Z,32
2018-07-08T11:34:14.635Z,32.14
2018-07-08T11:35:14.934Z,32.14
2018-07-08T11:36:14.695Z,32.21
2018-07-08T11:37:14.727Z,32.27
2018-07-08T11:38:15.018Z,32.29
2018-07-08T11:39:15.181Z,32.29
2018-07-08T11:40:14.815Z,32.3
2018-07-08T11:41:15.117Z,32.48
2018-07-08T11:42:14.869Z,32.45
2018-07-08T11:43:14.899Z,32.48
2018-07-08T11:44:14.929Z,32.58
2018-07-08T11:45:14.962Z,32.63
2018-07-08T11:46:15.289Z,32.67
2018-07-08T11:47:15.287Z,32.7
2018-07-08T11:48:15.321Z,32.74
2018-07-08T11:49:15.348Z,32.92
2018-07-08T11:50:15.384Z,32.93
2018-07-08T11:51:15.137Z,33.02
2018-07-08T11:52:15.440Z,33.02
2018-07-08T11:53:15.463Z,33.17
2018-07-08T11:54:15.496Z,33.24
2018-07-08T11:55:15.529Z,33.23
2018-07-08T11:56:15.558Z,33.3
2018-07-08T11:57:15.585Z,33.39
2018-07-08T11:58:15.618Z,33.37
2018-07-08T11:59:15.111Z,33.46
2018-07-08T12:00:15.671Z,33.53
2018-07-08T12:01:15.444Z,33.68
2018-07-08T12:02:15.441Z,33.74
2018-07-08T12:03:15.765Z,33.79
2018-07-08T12:04:15.532Z,33.86
2018-07-08T12:05:15.924Z,33.95
2018-07-08T12:06:15.923Z,34.02
2018-07-08T12:07:15.896Z,34.06
2018-07-08T12:08:15.651Z,34.06
2018-07-08T12:09:15.951Z,34.06
2018-07-08T12:10:16.255Z,34.05
2018-07-08T12:11:16.010Z,34.08
2018-07-08T12:12:15.776Z,34.1
2018-07-08T12:13:16.065Z,34.11
2018-07-08T12:14:15.835Z,34.01
2018-07-08T12:15:15.933Z,34.1
2018-07-08T12:16:15.898Z,34.03
2018-07-08T12:17:16.197Z,34.13
2018-07-08T12:18:15.986Z,34.18
2018-07-08T12:19:16.039Z,34.18
2018-07-08T12:20:16.099Z,34.2
2018-07-08T12:21:16.547Z,34.36
2018-07-08T12:22:16.346Z,34.42
2018-07-08T12:23:16.383Z,34.45
2018-07-08T12:24:16.141Z,34.48
2018-07-08T12:25:16.180Z,34.52
2018-07-08T12:26:16.474Z,34.6
2018-07-08T12:27:16.507Z,34.54
2018-07-08T12:28:16.559Z,34.55
2018-07-08T12:29:16.321Z,34.62
2018-07-08T12:30:16.605Z,34.78
2018-07-08T12:31:16.094Z,34.64
2018-07-08T12:32:16.512Z,34.77
2018-07-08T12:33:16.693Z,34.86
2018-07-08T12:34:16.720Z,34.92
2018-07-08T12:35:16.759Z,35.11
2018-07-08T12:36:16.557Z,35.15
2018-07-08T12:37:16.472Z,35.19
2018-07-08T12:38:16.586Z,35.3
2018-07-08T12:39:16.877Z,35.24
2018-07-08T12:40:16.992Z,35.29
2018-07-08T12:41:16.691Z,35.3
2018-07-08T12:42:16.713Z,35.36
2018-07-08T12:43:17.150Z,35.34
2018-07-08T12:44:17.522Z,35.3
2018-07-08T12:45:17.190Z,35.31
2018-07-08T12:46:17.196Z,35.29
2018-07-08T12:47:17.134Z,35.33
2018-07-08T12:48:17.161Z,35.31
2018-07-08T12:49:17.202Z,35.39
2018-07-08T12:50:17.228Z,35.51
2018-07-08T12:51:17.085Z,35.49
2018-07-08T12:52:17.352Z,35.6
2018-07-08T12:53:17.374Z,35.61
2018-07-08T12:54:17.195Z,35.64
2018-07-08T12:55:17.152Z,35.76
2018-07-08T12:56:17.156Z,35.74
2018-07-08T12:57:17.631Z,35.83